Time;durP1;ratioP1;P1;durP2;ratioP2;P2;SDS_P1;SDS_P2;PMS_P1;PMS_P2;Temp;Humidity;BMP_temperature;BMP_pressure;BME280_temperature;BME280_humidity;BME280_pressure;Samples;Min_cycle;Max_cycle;Signal;HPM_P1;HPM_P2
2022/10/13 00:01:15;;;;;;;22.27;9.15;;;;;;;11.44;100.00;101844.34;2611300;36;20042;-58
2022/10/13 00:03:45;;;;;;;15.07;9.95;;;;;;;11.43;100.00;101835.44;2610658;36;20051;-56
2022/10/13 00:06:13;;;;;;;23.50;10.65;;;;;;;11.43;100.00;101837.28;2610908;36;20480;-55
2022/10/13 00:08:43;;;;;;;20.00;9.70;;;;;;;11.39;100.00;101839.31;2607025;36;20149;-59
2022/10/13 00:11:14;;;;;;;23.02;9.48;;;;;;;11.38;100.00;101840.28;2611938;36;20673;-56
2022/10/13 00:13:46;;;;;;;16.98;9.73;;;;;;;11.49;100.00;101834.94;2611150;36;20543;-52
2022/10/13 00:16:16;;;;;;;19.42;9.32;;;;;;;11.53;100.00;101836.44;2612467;36;20042;-55
2022/10/13 00:18:45;;;;;;;17.17;9.30;;;;;;;11.55;100.00;101833.63;2607228;36;20058;-53
2022/10/13 00:21:15;;;;;;;18.10;9.10;;;;;;;11.52;100.00;101837.41;2611037;36;20037;-51
2022/10/13 00:23:44;;;;;;;17.50;9.32;;;;;;;11.43;100.00;101829.19;2608169;36;20069;-54
2022/10/13 00:26:15;;;;;;;23.45;10.13;;;;;;;11.43;100.00;101821.09;2609576;36;20550;-54
2022/10/13 00:28:46;;;;;;;16.02;9.02;;;;;;;11.44;100.00;101820.97;2609004;36;20039;-55
2022/10/13 00:31:19;;;;;;;19.85;10.23;;;;;;;11.48;100.00;101826.97;2610743;36;20073;-55
2022/10/13 00:33:48;;;;;;;17.73;9.85;;;;;;;11.53;100.00;101825.66;2608297;36;20525;-58
2022/10/13 00:36:16;;;;;;;24.90;10.30;;;;;;;11.53;100.00;101812.16;2610456;31;20117;-53
2022/10/13 00:38:45;;;;;;;18.08;9.27;;;;;;;11.54;100.00;101813.91;2608573;36;20035;-54
2022/10/13 00:41:13;;;;;;;21.93;10.23;;;;;;;11.56;100.00;101811.09;2606737;31;20038;-54
2022/10/13 00:43:58;;;;;;;20.60;9.55;;;;;;;11.58;100.00;101823.44;2609796;36;20046;-57
2022/10/13 00:46:29;;;;;;;14.85;9.43;;;;;;;11.59;100.00;101818.94;2610934;36;20062;-54
2022/10/13 00:49:00;;;;;;;19.02;10.20;;;;;;;11.63;100.00;101819.53;2609947;36;20034;-54
2022/10/13 00:51:32;;;;;;;17.88;9.20;;;;;;;11.65;100.00;101813.06;2611133;36;20057;-57
2022/10/13 00:54:01;;;;;;;19.30;9.75;;;;;;;11.58;100.00;101820.75;2608400;36;20040;-50
2022/10/13 00:56:30;;;;;;;;;;;;;;;11.55;100.00;101818.28;2609160;36;20441;-52
2022/10/13 00:59:02;;;;;;;22.40;10.07;;;;;;;11.58;100.00;101818.03;2606737;36;19988;-52
2022/10/13 01:01:31;;;;;;;22.60;10.25;;;;;;;11.53;100.00;101814.03;2605775;36;20054;-52
2022/10/13 01:03:59;;;;;;;20.20;10.07;;;;;;;11.59;100.00;101810.84;2608641;31;20061;-54
2022/10/13 01:06:28;;;;;;;18.20;11.05;;;;;;;11.66;100.00;101806.69;2610775;36;20034;-52
2022/10/13 01:08:56;;;;;;;21.67;9.43;;;;;;;11.64;100.00;101811.31;2606807;36;20022;-53
2022/10/13 01:11:39;;;;;;;23.23;10.52;;;;;;;11.77;100.00;101805.00;2608464;36;20038;-54
2022/10/13 01:14:18;;;;;;;21.52;11.18;;;;;;;11.74;100.00;101806.94;2609277;36;20035;-54
2022/10/13 01:16:57;;;;;;;15.98;9.27;;;;;;;11.80;100.00;101808.28;2609215;36;20540;-54
2022/10/13 01:19:45;;;;;;;26.20;9.98;;;;;;;11.84;100.00;101808.94;2607234;36;20625;-53
2022/10/13 01:22:24;;;;;;;18.60;9.93;;;;;;;11.86;100.00;101805.09;2609856;36;20061;-55
2022/10/13 01:25:03;;;;;;;16.88;9.95;;;;;;;11.81;100.00;101807.31;2611233;36;20038;-55
2022/10/13 01:27:57;;;;;;;17.88;9.40;;;;;;;11.86;100.00;101802.41;2609127;36;20042;-54
2022/10/13 01:30:28;;;;;;;21.42;11.00;;;;;;;12.01;100.00;101800.34;2606273;36;20528;-55
2022/10/13 01:33:09;;;;;;;19.02;9.70;;;;;;;12.06;100.00;101795.47;2611297;36;20061;-55
2022/10/13 01:35:51;;;;;;;20.25;9.77;;;;;;;12.06;100.00;101800.00;2611444;36;20034;-52
2022/10/13 01:38:27;;;;;;;18.33;10.25;;;;;;;12.24;100.00;101806.63;2609554;36;20027;-56
2022/10/13 01:41:03;;;;;;;16.13;9.95;;;;;;;12.08;100.00;101792.63;2609772;36;20045;-55
2022/10/13 01:43:37;;;;;;;20.85;9.48;;;;;;;12.21;100.00;101804.16;2610461;36;20023;-51
2022/10/13 01:46:13;;;;;;;18.27;10.32;;;;;;;12.17;100.00;101800.00;2610279;36;20172;-56
2022/10/13 01:48:44;;;;;;;18.88;10.25;;;;;;;12.19;100.00;101784.56;2607404;36;20600;-56
2022/10/13 01:51:15;;;;;;;21.40;10.50;;;;;;;12.33;100.00;101786.13;2607485;36;20049;-53
2022/10/13 01:53:45;;;;;;;18.27;9.43;;;;;;;12.25;100.00;101789.44;2611096;36;20527;-57
2022/10/13 01:56:13;;;;;;;16.30;9.32;;;;;;;12.25;100.00;101789.44;2610681;36;20073;-54
2022/10/13 01:58:42;;;;;;;17.38;10.52;;;;;;;12.40;100.00;101786.50;2608415;36;20034;-55
2022/10/13 02:01:34;;;;;;;17.08;9.27;;;;;;;12.26;100.00;101782.19;2608372;36;20033;-56
2022/10/13 02:04:12;;;;;;;21.95;9.82;;;;;;;12.31;100.00;101784.50;2610897;36;20023;-56
2022/10/13 02:06:45;;;;;;;18.58;10.07;;;;;;;12.41;100.00;101783.66;2612412;36;20543;-56
2022/10/13 02:09:20;;;;;;;19.27;10.52;;;;;;;12.26;100.00;101776.78;2608971;36;20038;-54
2022/10/13 02:11:56;;;;;;;22.17;10.35;;;;;;;12.20;100.00;101775.44;2610205;36;20630;-53
2022/10/13 02:14:28;;;;;;;19.10;9.43;;;;;;;12.38;100.00;101766.84;2607779;36;20873;-53
2022/10/13 02:17:03;;;;;;;15.95;9.68;;;;;;;12.22;100.00;101772.63;2612852;36;20850;-57
2022/10/13 02:19:35;;;;;;;18.38;10.45;;;;;;;12.26;100.00;101771.41;2609472;36;20038;-54
2022/10/13 02:22:04;;;;;;;22.27;10.30;;;;;;;12.12;100.00;101769.84;2609848;36;20056;-55
2022/10/13 02:24:33;;;;;;;18.80;10.35;;;;;;;12.19;100.00;101765.66;2609097;36;20088;-56
2022/10/13 02:27:02;;;;;;;21.80;11.27;;;;;;;12.26;100.00;101764.19;2610631;36;20034;-54
2022/10/13 02:29:30;;;;;;;19.60;10.50;;;;;;;12.21;100.00;101758.28;2605608;36;20031;-57
2022/10/13 02:32:01;;;;;;;23.00;11.20;;;;;;;12.06;100.00;101740.66;2606881;36;20039;-58
2022/10/13 02:34:30;;;;;;;17.73;10.20;;;;;;;12.15;100.00;101725.56;2603864;36;20034;-54
2022/10/13 02:36:58;;;;;;;17.92;10.63;;;;;;;12.26;100.00;101733.59;2609251;36;20240;-54
2022/10/13 02:39:26;;;;;;;20.33;9.57;;;;;;;12.26;100.00;101747.97;2606750;36;20531;-54
2022/10/13 02:41:54;;;;;;;20.88;10.38;;;;;;;12.20;100.00;101748.47;2607002;36;20030;-56
2022/10/13 02:44:23;;;;;;;16.77;10.30;;;;;;;12.18;100.00;101757.69;2606729;36;20035;-57
2022/10/13 02:46:52;;;;;;;17.63;10.68;;;;;;;12.08;100.00;101754.88;2608150;36;20075;-55
2022/10/13 02:49:22;;;;;;;20.02;10.93;;;;;;;12.17;100.00;101748.72;2607282;36;20045;-52
2022/10/13 02:51:51;;;;;;;17.42;9.75;;;;;;;12.16;100.00;101747.03;2601694;36;20092;-57
2022/10/13 02:54:19;;;;;;;18.02;9.75;;;;;;;12.17;100.00;101756.81;2605886;31;20069;-54
2022/10/13 02:56:47;;;;;;;18.20;9.37;;;;;;;12.40;100.00;101748.69;2605471;36;20034;-54
2022/10/13 02:59:16;;;;;;;16.73;10.32;;;;;;;12.19;100.00;101746.75;2606009;36;20408;-56
2022/10/13 03:01:44;;;;;;;18.40;10.48;;;;;;;12.24;100.00;101744.53;2604858;36;20038;-56
2022/10/13 03:04:13;;;;;;;16.90;10.27;;;;;;;12.11;100.00;101738.41;2607873;36;20030;-57
2022/10/13 03:06:44;;;;;;;18.92;11.32;;;;;;;12.24;100.00;101728.34;2606900;31;20042;-56
2022/10/13 03:09:13;;;;;;;20.15;10.98;;;;;;;12.33;100.00;101729.44;2607359;36;20030;-55
2022/10/13 03:11:41;;;;;;;19.85;10.35;;;;;;;12.41;100.00;101717.97;2609281;36;20030;-53
2022/10/13 03:14:09;;;;;;;21.80;10.50;;;;;;;12.26;100.00;101704.78;2607716;36;20085;-57
2022/10/13 03:16:38;;;;;;;33.67;11.40;;;;;;;12.23;100.00;101688.84;2611366;36;20291;-54
2022/10/13 03:19:06;;;;;;;20.05;10.90;;;;;;;12.21;100.00;101690.81;2610994;36;20042;-56
2022/10/13 03:21:34;;;;;;;19.35;11.60;;;;;;;12.48;100.00;101694.91;2610886;36;20098;-59
2022/10/13 03:24:06;;;;;;;20.17;11.13;;;;;;;12.39;100.00;101698.38;2605948;36;20046;-56
2022/10/13 03:26:35;;;;;;;18.77;10.65;;;;;;;12.25;100.00;101689.56;2610980;31;20052;-54
2022/10/13 03:29:04;;;;;;;18.42;10.50;;;;;;;12.44;100.00;101706.97;2610369;36;20092;-57
2022/10/13 03:31:32;;;;;;;21.85;10.27;;;;;;;12.42;100.00;101725.13;2611849;36;20074;-58
2022/10/13 03:34:01;;;;;;;18.13;9.95;;;;;;;12.32;100.00;101730.41;2608670;31;20038;-54
2022/10/13 03:36:29;;;;;;;25.80;11.83;;;;;;;12.45;100.00;101719.44;2611237;31;20030;-57
2022/10/13 03:38:58;;;;;;;17.73;9.80;;;;;;;12.51;100.00;101718.94;2609992;36;20042;-54
2022/10/13 03:41:29;;;;;;;17.60;9.95;;;;;;;12.43;100.00;101724.13;2610188;36;20066;-53
2022/10/13 03:43:57;;;;;;;20.08;11.15;;;;;;;12.48;100.00;101713.78;2606455;36;20058;-55
2022/10/13 03:46:29;;;;;;;18.90;10.32;;;;;;;12.50;100.00;101719.94;2607354;31;20789;-56
2022/10/13 03:48:57;;;;;;;18.10;11.07;;;;;;;12.41;100.00;101708.06;2608419;36;20042;-55
2022/10/13 03:51:26;;;;;;;23.13;10.63;;;;;;;12.57;100.00;101704.94;2606475;36;20578;-55
2022/10/13 03:53:54;;;;;;;23.20;10.83;;;;;;;12.43;100.00;101700.69;2602334;36;20041;-55
2022/10/13 03:56:25;;;;;;;18.73;10.77;;;;;;;12.49;100.00;101710.13;2606074;36;20702;-53
2022/10/13 03:58:58;;;;;;;17.75;10.40;;;;;;;12.48;100.00;101708.41;2605304;36;20073;-56
2022/10/13 04:01:29;;;;;;;24.40;11.15;;;;;;;12.49;100.00;101696.63;2608452;36;20399;-55
2022/10/13 04:03:58;;;;;;;18.08;11.23;;;;;;;12.48;100.00;101686.78;2608279;36;20443;-54
2022/10/13 04:06:27;;;;;;;17.65;10.57;;;;;;;12.40;100.00;101686.59;2605613;36;20751;-56
2022/10/13 04:08:56;;;;;;;;;;;;;;;12.53;100.00;101686.41;2606999;36;20069;-54
2022/10/13 04:11:24;;;;;;;21.65;11.05;;;;;;;12.40;100.00;101681.19;2605746;36;19950;-53
2022/10/13 04:13:57;;;;;;;22.33;10.52;;;;;;;12.29;100.00;101678.53;2606918;36;20030;-55
2022/10/13 04:16:27;;;;;;;17.30;11.00;;;;;;;12.45;100.00;101676.25;2605410;36;20034;-55
2022/10/13 04:18:57;;;;;;;21.42;10.48;;;;;;;12.46;100.00;101691.47;2607012;36;20031;-56
2022/10/13 04:21:26;;;;;;;22.98;11.32;;;;;;;12.47;100.00;101689.63;2611000;36;20038;-54
2022/10/13 04:23:56;;;;;;;23.20;11.20;;;;;;;12.45;100.00;101687.06;2605483;36;20042;-56
2022/10/13 04:26:26;;;;;;;18.48;9.77;;;;;;;12.56;100.00;101683.47;2605936;31;20027;-57
2022/10/13 04:28:57;;;;;;;19.05;10.52;;;;;;;12.74;100.00;101681.91;2607278;31;20456;-56
2022/10/13 04:31:26;;;;;;;22.75;11.25;;;;;;;12.62;100.00;101682.97;2607294;36;20065;-53
2022/10/13 04:33:55;;;;;;;25.25;11.75;;;;;;;12.54;100.00;101669.22;2607938;31;20462;-55
2022/10/13 04:36:24;;;;;;;17.10;9.80;;;;;;;12.48;100.00;101684.09;2609050;36;20072;-56
2022/10/13 04:38:53;;;;;;;22.58;11.27;;;;;;;12.55;100.00;101673.66;2605656;36;20109;-56
2022/10/13 04:41:23;;;;;;;20.05;11.73;;;;;;;12.62;100.00;101667.59;2606202;36;20045;-56
2022/10/13 04:43:52;;;;;;;24.98;13.32;;;;;;;12.65;100.00;101671.88;2608366;31;20049;-55
2022/10/13 04:46:25;;;;;;;22.23;11.38;;;;;;;12.73;100.00;101657.72;2608935;31;20038;-56
2022/10/13 04:48:54;;;;;;;21.13;11.20;;;;;;;12.80;100.00;101664.31;2606168;36;20084;-56
2022/10/13 04:51:24;;;;;;;18.73;10.93;;;;;;;12.66;100.00;101659.22;2607795;36;20035;-54
2022/10/13 04:53:58;;;;;;;19.92;11.60;;;;;;;12.68;100.00;101662.69;2606334;36;20042;-56
2022/10/13 04:56:27;;;;;;;19.42;10.98;;;;;;;12.66;100.00;101661.94;2606705;36;20050;-55
2022/10/13 04:58:55;;;;;;;19.30;11.25;;;;;;;12.71;100.00;101665.13;2607267;36;21118;-54
2022/10/13 05:01:26;;;;;;;20.52;11.45;;;;;;;12.62;100.00;101662.19;2603116;36;20101;-55
2022/10/13 05:03:56;;;;;;;21.15;11.82;;;;;;;12.66;100.00;101661.94;2607139;36;20415;-58
2022/10/13 05:06:29;;;;;;;19.80;11.13;;;;;;;12.67;100.00;101661.78;2602490;36;20030;-57
2022/10/13 05:08:57;;;;;;;22.67;11.48;;;;;;;12.75;100.00;101671.94;2605811;36;20428;-55
2022/10/13 05:11:27;;;;;;;20.33;11.63;;;;;;;12.67;100.00;101686.09;2604351;36;20035;-55
2022/10/13 05:13:56;;;;;;;21.25;12.23;;;;;;;12.64;100.00;101663.91;2612457;36;20042;-55
2022/10/13 05:16:29;;;;;;;19.25;11.20;;;;;;;12.74;100.00;101676.50;2610903;31;20534;-56
2022/10/13 05:19:01;;;;;;;22.90;11.82;;;;;;;12.76;100.00;101662.88;2612767;39;20412;-56
2022/10/13 05:21:30;;;;;;;23.35;11.25;;;;;;;12.90;100.00;101670.66;2610011;36;20035;-55
2022/10/13 05:24:01;;;;;;;16.90;11.27;;;;;;;12.67;100.00;101669.91;2607446;36;20062;-55
2022/10/13 05:26:32;;;;;;;21.77;12.55;;;;;;;12.79;100.00;101673.41;2613187;36;20237;-52
2022/10/13 05:29:01;;;;;;;20.80;11.38;;;;;;;12.68;100.00;101670.78;2608405;36;20185;-55
2022/10/13 05:31:34;;;;;;;21.58;11.35;;;;;;;12.58;100.00;101666.13;2607624;36;20046;-57
2022/10/13 05:34:02;;;;;;;20.35;11.45;;;;;;;12.68;100.00;101666.22;2609672;36;20043;-52
2022/10/13 05:36:32;;;;;;;22.25;11.90;;;;;;;12.75;100.00;101662.03;2611190;36;20042;-55
2022/10/13 05:39:02;;;;;;;24.52;12.13;;;;;;;12.70;100.00;101663.38;2609586;36;20049;-58
2022/10/13 05:41:31;;;;;;;20.88;12.60;;;;;;;12.65;100.00;101660.22;2609691;36;20037;-58
2022/10/13 05:44:02;;;;;;;27.73;12.48;;;;;;;12.69;100.00;101657.16;2609896;31;20030;-53
2022/10/13 05:46:33;;;;;;;21.73;12.68;;;;;;;12.67;100.00;101652.84;2604774;36;20045;-54
2022/10/13 05:49:02;;;;;;;24.48;11.98;;;;;;;12.66;100.00;101651.13;2602825;36;21423;-56
2022/10/13 05:51:35;;;;;;;26.43;12.97;;;;;;;12.68;100.00;101662.69;2607241;36;20077;-54
2022/10/13 05:54:09;;;;;;;25.58;13.95;;;;;;;12.64;100.00;101653.97;2607491;36;20077;-54
2022/10/13 05:56:42;;;;;;;26.02;12.60;;;;;;;12.64;100.00;101648.56;2602779;36;20586;-56
2022/10/13 05:59:14;;;;;;;26.98;13.85;;;;;;;12.52;100.00;101655.84;2607168;36;20456;-56
2022/10/13 06:01:46;;;;;;;23.48;13.40;;;;;;;12.71;100.00;101657.84;2606673;36;20583;-55
2022/10/13 06:04:18;;;;;;;24.23;13.63;;;;;;;12.66;100.00;101657.41;2607470;36;20057;-55
2022/10/13 06:06:48;;;;;;;23.55;13.65;;;;;;;12.69;100.00;101658.97;2607044;36;20035;-52
2022/10/13 06:09:17;;;;;;;24.83;13.38;;;;;;;12.72;100.00;101650.59;2607136;36;20355;-58
2022/10/13 06:11:45;;;;;;;31.75;14.70;;;;;;;12.54;100.00;101651.16;2607512;31;20585;-55
2022/10/13 06:14:14;;;;;;;26.13;13.13;;;;;;;12.67;100.00;101647.44;2604772;36;20041;-58
2022/10/13 06:16:44;;;;;;;30.52;15.43;;;;;;;12.57;100.00;101647.38;2606935;36;20027;-58
2022/10/13 06:19:13;;;;;;;25.40;14.05;;;;;;;12.57;100.00;101655.47;2603367;36;20061;-53
2022/10/13 06:21:41;;;;;;;30.25;14.27;;;;;;;12.68;100.00;101654.56;2606855;36;20045;-56
2022/10/13 06:24:09;;;;;;;25.88;13.68;;;;;;;12.69;100.00;101658.97;2609709;36;20031;-56
2022/10/13 06:26:38;;;;;;;24.88;13.13;;;;;;;12.60;100.00;101653.38;2608164;36;20046;-56
2022/10/13 06:29:06;;;;;;;29.55;13.88;;;;;;;12.60;100.00;101653.38;2608383;36;20023;-56
2022/10/13 06:31:34;;;;;;;29.55;15.60;;;;;;;12.55;100.00;101649.34;2611372;31;20023;-52
2022/10/13 06:34:06;;;;;;;27.73;14.68;;;;;;;12.64;100.00;101648.56;2610666;36;20034;-57
2022/10/13 06:36:35;;;;;;;24.17;13.73;;;;;;;12.70;100.00;101649.88;2609073;36;20031;-56
2022/10/13 06:39:03;;;;;;;25.30;14.02;;;;;;;12.68;100.00;101644.63;2607007;36;20039;-55
2022/10/13 06:41:31;;;;;;;31.07;14.63;;;;;;;12.70;100.00;101636.38;2612568;36;20038;-57
2022/10/13 06:44:00;;;;;;;26.63;14.13;;;;;;;12.66;100.00;101621.41;2609864;36;20069;-58
2022/10/13 06:46:28;;;;;;;27.02;14.07;;;;;;;12.80;100.00;101626.50;2610865;31;20022;-59
2022/10/13 06:48:57;;;;;;;24.43;13.93;;;;;;;12.90;100.00;101622.03;2605657;36;20022;-58
2022/10/13 06:51:28;;;;;;;26.17;13.65;;;;;;;12.93;100.00;101632.56;2603967;36;20057;-59
2022/10/13 06:53:57;;;;;;;24.02;13.35;;;;;;;12.91;100.00;101618.34;2607075;36;20083;-59
2022/10/13 06:56:25;;;;;;;29.70;13.98;;;;;;;12.99;100.00;101623.06;2610197;36;20026;-58
2022/10/13 06:58:53;;;;;;;27.95;14.27;;;;;;;13.05;100.00;101629.78;2605094;36;20041;-61
2022/10/13 07:01:22;;;;;;;29.38;15.05;;;;;;;12.97;100.00;101646.69;2605355;31;20041;-60
2022/10/13 07:03:51;;;;;;;21.02;13.57;;;;;;;12.96;100.00;101631.44;2610863;36;20035;-58
2022/10/13 07:06:19;;;;;;;24.98;14.10;;;;;;;13.07;100.00;101635.91;2609934;36;20034;-61
2022/10/13 07:08:50;;;;;;;29.85;14.75;;;;;;;13.08;100.00;101651.16;2611028;36;20034;-58
2022/10/13 07:11:19;;;;;;;26.48;14.15;;;;;;;13.10;100.00;101643.75;2610907;36;20030;-59
2022/10/13 07:13:47;;;;;;;24.45;13.57;;;;;;;13.19;100.00;101639.38;2611116;36;20681;-59
2022/10/13 07:16:16;;;;;;;28.38;15.50;;;;;;;13.12;100.00;101642.63;2611396;36;20041;-59
2022/10/13 07:18:44;;;;;;;23.80;13.88;;;;;;;13.10;100.00;101646.44;2612910;31;20427;-56
2022/10/13 07:21:12;;;;;;;31.37;14.87;;;;;;;13.19;100.00;101650.19;2611146;36;20033;-58
2022/10/13 07:23:41;;;;;;;29.67;14.40;;;;;;;13.19;100.00;101647.50;2610147;36;20034;-58
2022/10/13 07:26:15;;;;;;;30.70;14.23;;;;;;;13.08;100.00;101646.59;2607580;31;20030;-58
2022/10/13 07:28:43;;;;;;;26.45;15.20;;;;;;;13.16;100.00;101643.22;2613785;36;20447;-58
2022/10/13 07:31:13;;;;;;;25.38;14.23;;;;;;;13.22;100.00;101645.41;2612443;36;20081;-58
2022/10/13 07:33:42;;;;;;;27.85;15.57;;;;;;;13.23;100.00;101644.38;2611927;36;20045;-58
2022/10/13 07:36:11;;;;;;;28.67;14.45;;;;;;;13.35;100.00;101647.03;2611949;31;20027;-58
2022/10/13 07:38:40;;;;;;;31.63;15.07;;;;;;;13.39;100.00;101638.53;2613231;36;20034;-58
2022/10/13 07:41:09;;;;;;;26.77;15.13;;;;;;;13.46;100.00;101639.69;2612508;31;20605;-57
2022/10/13 07:43:41;;;;;;;28.27;15.18;;;;;;;13.20;100.00;101643.81;2608742;36;20034;-58
2022/10/13 07:46:10;;;;;;;31.02;15.50;;;;;;;13.28;100.00;101642.16;2610477;31;20041;-58
2022/10/13 07:48:38;;;;;;;24.52;14.38;;;;;;;13.24;100.00;101643.41;2610254;36;20022;-58
2022/10/13 07:51:08;;;;;;;26.40;15.82;;;;;;;13.23;100.00;101644.38;2610381;36;20035;-57
2022/10/13 07:53:37;;;;;;;30.40;15.32;;;;;;;13.25;100.00;101639.72;2610096;36;20057;-57
2022/10/13 07:56:07;;;;;;;32.20;18.75;;;;;;;13.19;100.00;101637.56;2607578;31;20034;-57
2022/10/13 07:58:39;;;;;;;29.30;16.33;;;;;;;13.22;100.00;101634.59;2608767;36;20031;-58
2022/10/13 08:01:11;;;;;;;32.80;15.50;;;;;;;13.32;100.00;101634.59;2611739;31;20045;-58
2022/10/13 08:03:40;;;;;;;32.45;16.58;;;;;;;13.39;100.00;101640.38;2611035;36;20034;-58
2022/10/13 08:06:11;;;;;;;30.63;16.75;;;;;;;13.51;100.00;101641.13;2606412;31;20805;-58
2022/10/13 08:08:39;;;;;;;28.08;15.65;;;;;;;13.44;100.00;101651.63;2608304;31;20041;-58
2022/10/13 08:11:13;;;;;;;34.97;17.53;;;;;;;13.54;100.00;101647.13;2607164;31;20042;-59
2022/10/13 08:13:41;;;;;;;34.15;17.75;;;;;;;13.59;100.00;101639.47;2607318;36;20302;-57
2022/10/13 08:16:12;;;;;;;29.90;16.47;;;;;;;13.65;100.00;101638.91;2606036;36;20046;-59
2022/10/13 08:18:40;;;;;;;31.52;17.33;;;;;;;13.65;100.00;101638.06;2609560;36;20039;-58
2022/10/13 08:21:14;;;;;;;31.65;15.88;;;;;;;13.83;100.00;101636.41;2607111;36;20478;-59
2022/10/13 08:23:42;;;;;;;39.60;17.80;;;;;;;13.92;100.00;101633.88;2610861;36;20056;-57
2022/10/13 08:26:18;;;;;;;33.07;18.07;;;;;;;13.92;100.00;101633.88;2609066;36;20567;-57
2022/10/13 08:28:46;;;;;;;33.47;18.23;;;;;;;13.93;100.00;101636.44;2608946;36;20081;-57
2022/10/13 08:31:17;;;;;;;39.13;18.35;;;;;;;13.99;100.00;101632.31;2605044;36;20046;-57
2022/10/13 08:33:47;;;;;;;37.95;18.85;;;;;;;13.88;100.00;101637.84;2608477;36;20031;-57
2022/10/13 08:36:15;;;;;;;;;;;;;;;13.92;100.00;101640.13;2605556;36;20038;-57
2022/10/13 08:38:43;;;;;;;39.90;19.13;;;;;;;13.93;100.00;101641.84;2603146;36;20054;-59
2022/10/13 08:41:18;;;;;;;35.38;17.83;;;;;;;14.13;100.00;101639.16;2610212;36;20085;-58
2022/10/13 08:43:50;;;;;;;38.53;18.73;;;;;;;14.17;100.00;101638.75;2607614;36;20081;-58
2022/10/13 08:46:27;;;;;;;40.33;20.08;;;;;;;14.02;100.00;101635.59;2604604;36;20054;-58
2022/10/13 08:48:57;;;;;;;40.80;19.55;;;;;;;14.22;100.00;101638.31;2611161;36;20142;-58
2022/10/13 08:51:25;;;;;;;34.58;19.40;;;;;;;14.42;100.00;101635.63;2609793;36;20029;-58
2022/10/13 08:53:54;;;;;;;39.00;19.57;;;;;;;14.28;100.00;101642.31;2606710;31;20055;-58
2022/10/13 08:56:26;;;;;;;42.23;19.97;;;;;;;14.27;100.00;101640.63;2608676;36;20026;-58
2022/10/13 08:58:56;;;;;;;39.67;19.50;;;;;;;14.54;100.00;101645.31;2605988;31;20039;-57
2022/10/13 09:01:31;;;;;;;41.97;19.20;;;;;;;14.65;100.00;101642.50;2609196;36;20605;-57
2022/10/13 09:04:12;;;;;;;41.95;21.17;;;;;;;14.77;100.00;101640.50;2610207;36;20474;-56
2022/10/13 09:06:44;;;;;;;33.40;17.95;;;;;;;14.84;100.00;101635.34;2610394;31;20543;-57
2022/10/13 09:09:15;;;;;;;35.50;19.60;;;;;;;14.74;100.00;101629.06;2607874;36;20038;-58
2022/10/13 09:11:45;;;;;;;34.88;18.88;;;;;;;14.65;100.00;101631.66;2608465;36;20042;-58
2022/10/13 09:14:22;;;;;;;37.83;19.48;;;;;;;14.97;100.00;101635.91;2604885;31;20579;-58
2022/10/13 09:16:58;;;;;;;37.97;20.45;;;;;;;15.32;100.00;101628.94;2610601;54;20030;-59
2022/10/13 09:19:28;;;;;;;31.92;18.58;;;;;;;15.21;100.00;101619.13;2610505;36;20029;-58
2022/10/13 09:22:17;;;;;;;32.38;19.08;;;;;;;15.25;100.00;101611.53;2607497;36;20034;-58
2022/10/13 09:24:47;;;;;;;38.13;18.95;;;;;;;15.45;100.00;101612.34;2609054;36;20057;-59
2022/10/13 09:27:18;;;;;;;31.90;18.07;;;;;;;15.57;100.00;101615.69;2607641;36;20415;-58
2022/10/13 09:29:46;;;;;;;33.53;17.38;;;;;;;15.46;100.00;101615.88;2607475;36;20041;-58
2022/10/13 09:32:22;;;;;;;33.27;18.83;;;;;;;15.45;100.00;101622.34;2611184;36;20027;-59
2022/10/13 09:34:52;;;;;;;26.50;16.75;;;;;;;15.28;100.00;101627.50;2608089;36;20045;-58
2022/10/13 09:37:23;;;;;;;30.40;16.45;;;;;;;15.37;100.00;101633.91;2608373;36;20041;-58
2022/10/13 09:40:03;;;;;;;28.27;17.35;;;;;;;15.19;100.00;101623.00;2610822;36;20035;-59
2022/10/13 09:42:33;;;;;;;27.48;16.85;;;;;;;15.31;100.00;101626.38;2604940;36;20034;-59
2022/10/13 09:45:03;;;;;;;35.85;18.77;;;;;;;15.21;100.00;101621.84;2609211;31;20145;-59
2022/10/13 09:47:34;;;;;;;31.02;16.25;;;;;;;15.32;100.00;101622.66;2609145;31;20129;-59
2022/10/13 09:50:16;;;;;;;28.60;17.45;;;;;;;15.29;100.00;101615.69;2607109;36;20459;-59
2022/10/13 09:52:46;;;;;;;32.38;17.73;;;;;;;15.34;100.00;101628.78;2599049;31;20037;-58
2022/10/13 09:55:33;;;;;;;29.17;17.83;;;;;;;15.52;100.00;101623.44;2602046;31;20053;-59
2022/10/13 09:58:06;;;;;;;26.30;16.35;;;;;;;15.51;100.00;101624.44;2598893;36;21845;-59
2022/10/13 10:00:35;;;;;;;28.48;16.10;;;;;;;15.61;100.00;101622.53;2605919;36;20030;-58
2022/10/13 10:03:11;;;;;;;26.15;17.25;;;;;;;15.61;100.00;101625.25;2609892;36;20041;-58
2022/10/13 10:05:46;;;;;;;30.52;19.33;;;;;;;15.75;100.00;101613.91;2609082;36;20432;-58
2022/10/13 10:08:19;;;;;;;25.38;15.50;;;;;;;16.06;100.00;101610.00;2604373;36;20038;-59
2022/10/13 10:10:51;;;;;;;24.58;15.27;;;;;;;15.99;100.00;101619.78;2603729;54;20566;-58
2022/10/13 10:13:19;;;;;;;24.98;16.17;;;;;;;16.00;100.00;101608.75;2606821;36;20026;-57
2022/10/13 10:15:56;;;;;;;35.90;15.90;;;;;;;15.66;100.00;101622.94;2606473;36;20037;-59
2022/10/13 10:18:36;;;;;;;30.88;16.05;;;;;;;15.53;100.00;101625.13;2604930;36;20543;-59
2022/10/13 10:21:10;;;;;;;31.77;17.25;;;;;;;15.31;100.00;101631.78;2609866;31;20023;-59
2022/10/13 10:23:47;;;;;;;30.20;16.90;;;;;;;15.48;100.00;101622.03;2606334;31;20034;-60
2022/10/13 10:26:20;;;;;;;29.02;17.02;;;;;;;15.41;100.00;101616.34;2606785;36;20042;-57
2022/10/13 10:29:11;;;;;;;25.52;16.48;;;;;;;15.55;100.00;101618.56;2606322;36;20034;-58
2022/10/13 10:32:03;;;;;;;33.97;17.58;;;;;;;15.46;100.00;101607.75;2607353;36;20038;-59
2022/10/13 10:34:44;;;;;;;31.27;17.48;;;;;;;15.51;100.00;101605.44;2604541;36;20676;-59
2022/10/13 10:37:18;;;;;;;25.95;17.20;;;;;;;15.73;100.00;101602.31;2606221;36;20034;-59
2022/10/13 10:39:50;;;;;;;34.25;18.17;;;;;;;15.79;100.00;101602.78;2606870;36;20049;-60
2022/10/13 10:42:40;;;;;;;29.45;16.95;;;;;;;15.86;100.00;101598.44;2609120;36;20038;-59
2022/10/13 10:45:18;;;;;;;31.05;18.83;;;;;;;15.93;100.00;101604.97;2605311;36;20030;-59
2022/10/13 10:47:50;;;;;;;30.80;17.83;;;;;;;16.10;100.00;101590.53;2605068;36;20031;-59
2022/10/13 10:50:21;;;;;;;33.33;17.63;;;;;;;16.02;100.00;101595.91;2611814;31;20409;-59
2022/10/13 10:52:58;;;;;;;28.50;17.55;;;;;;;16.29;100.00;101585.97;2610333;36;20022;-59
2022/10/13 10:55:33;;;;;;;28.65;17.45;;;;;;;16.46;100.00;101582.38;2606630;36;20038;-59
2022/10/13 10:58:14;;;;;;;26.38;16.65;;;;;;;16.44;100.00;101594.41;2612354;31;20030;-59
2022/10/13 11:00:49;;;;;;;27.25;17.02;;;;;;;16.35;100.00;101592.63;2608058;36;20026;-59
2022/10/13 11:03:31;;;;;;;27.48;16.85;;;;;;;16.20;100.00;101590.47;2612135;36;20035;-60
2022/10/13 11:06:10;;;;;;;30.23;17.70;;;;;;;16.35;100.00;101582.63;2615195;36;20033;-59
2022/10/13 11:08:45;;;;;;;26.52;16.13;;;;;;;16.36;100.00;101581.63;2614998;31;20034;-58
2022/10/13 11:11:32;;;;;;;26.85;16.95;;;;;;;16.36;100.00;101576.19;2614622;36;20042;-58
2022/10/13 11:14:03;;;;;;;29.75;16.27;;;;;;;16.56;100.00;101578.72;2614269;31;20046;-59
2022/10/13 11:16:34;;;;;;;28.15;15.90;;;;;;;16.51;100.00;101575.63;2616440;36;20034;-58
2022/10/13 11:19:08;;;;;;;28.50;15.43;;;;;;;16.39;100.00;101573.16;2615251;36;20030;-59
2022/10/13 11:22:24;;;;;;;22.23;15.02;;;;;;;16.39;100.00;101570.44;2615998;36;20033;-58
2022/10/13 11:25:00;;;;;;;26.40;16.10;;;;;;;16.55;100.00;101577.00;2614972;36;20089;-59